TAF and METAR

Decoding for American and Canadian METARs and TAFs is not fully implemented.

Could not understand the following METAR

KHIB 311253Z AUTO 00000KT 10SM CLR 09/01 A3030 RMK AO2 SLP269 T00890011

TAF for Chisholm-Hibbing Airport

KHIB 311133Z 3112/0112 00000KT P6SM SKC FM311500 25005KT P6SM SKC FM010600 16002KT P6SM BKN100 FM011000 16003KT P6SM OVC050
Report created 31. mai 13:33

between 31. mai 14:00 - 1. mai 14:00

wind 0 knots from N (000°)
Chisholm-Hibbing Airport in United States of America at 412m

Latest 5 airports